الصفحة الرئيسية
METAR-TAF:

METAR-TAF

مطار :

زغرب, كرواتيا

دائرة عرض: 45-44N, خط طول: 016-04E, ارتفاع: 106 متر

مراقبة الطقس الحالي

تاريخ ووقت الإصدار 22 دقيقة قبل الساعة 08:30UTC
ريح 14 عقدة من الشمال/الشمال الشرقي
درجة الحرارة -1°درجة مئوية
الرطوبة 100%
ضغط 1013 hPa
الرؤية: 0600 متر
انخفاض الانجراف الثلوج

METAR: LDZA 220830Z 03014KT 0600 R05/0900N R23/0900N DRSN VV010 M01/M01 Q1013 R05/69//94 NOSIG

زمن: 09:52 (08:52 UTC)

توقعات

تاريخ ووقت الإصدار 3ساعات و 27 دقيقة قبل الساعة 05:25UTC
التوقعات صالحة من22 الساعة 06 UTC إلى 23 الساعة 06 UTC
ريح 15 عقدة من الشمال الشرقي
الرؤية: 3000 متر
ملبد بالغيوم على ارتفاع 1200 قدم
ثلوج خفيفة
مؤقت
من 22 الساعة 06 UTC إلى 22 الساعة 12 UTC
الرؤية: 0800 متر
على ارتفاع 500 قدم
ثلوج
نظرية الاحتمالات 40% :
مؤقت
من 22 الساعة 12 UTC إلى 22 الساعة 20 UTC
الرؤية: 6000 متر
ملبد بالغيوم على ارتفاع 1800 قدم
مؤقت
من 22 الساعة 20 UTC إلى 23 الساعة 06 UTC
الرؤية: 0800 متر
على ارتفاع 500 قدم
ثلوج

TAF: LDZA 220525Z 2206/2306 04015KT 3000 -SN OVC012 TX00/2213Z TNM01/2206Z TEMPO 2206/2212 0800 SN VV005 PROB40 TEMPO 2212/2220 6000 OVC018 TEMPO 2220/2306 0800 SN VV005

أرصاد الطقس والتوقعات من أكثر من 4000 مطار (تقارير الطقس للمطار METAR والتنبؤ بالطقس بالمطارTAF).

المحطات المتاحة هي النقط الصفراء والحمراء على الخريطة.

حرك المؤشر فوق النقطة لمعرفة اسم المحطة.

ثم انقر لمعرفة أرصاد وتوقعات الطقس.

لتغيير الخارطة: اضغط على الأزرار الخضراء مع رمز الصليب الأسود للتكبير. على الزر الأخضر مع شرطة للتصغير، أو على الأسهم الخضراء للخرائط المجاورة.


METAR-TAF: